createdAt,value
2023-03-16T00:00:42.900Z,3.13
2023-03-16T00:03:10.601Z,3.23
2023-03-16T00:05:37.516Z,3.00
2023-03-16T00:08:04.394Z,3.50
2023-03-16T00:10:30.830Z,2.93
2023-03-16T00:12:57.604Z,2.67
2023-03-16T00:15:24.301Z,3.10
2023-03-16T00:17:50.706Z,2.40
2023-03-16T00:20:18.555Z,2.30
2023-03-16T00:22:45.065Z,2.30
2023-03-16T00:25:14.587Z,2.50
2023-03-16T00:27:41.556Z,2.30
2023-03-16T00:30:08.906Z,2.27
2023-03-16T00:32:37.485Z,2.63
2023-03-16T00:35:07.356Z,2.20
2023-03-16T00:37:37.628Z,2.83
2023-03-16T00:40:06.028Z,2.57
2023-03-16T00:42:34.124Z,2.43
2023-03-16T00:45:01.703Z,2.60
2023-03-16T00:47:31.425Z,2.90
2023-03-16T00:49:59.017Z,3.20
2023-03-16T00:52:27.470Z,2.97
2023-03-16T00:54:55.358Z,3.33
2023-03-16T00:57:25.111Z,2.63
2023-03-16T00:59:52.720Z,3.30
2023-03-16T01:02:23.322Z,2.80
2023-03-16T01:04:50.657Z,3.17
2023-03-16T01:07:18.743Z,2.87
2023-03-16T01:09:45.437Z,3.07
2023-03-16T01:12:14.657Z,3.80
2023-03-16T01:14:42.148Z,3.17
2023-03-16T01:17:09.748Z,2.93
2023-03-16T01:19:37.364Z,3.03
2023-03-16T01:22:05.820Z,3.50
2023-03-16T01:24:34.087Z,3.30
2023-03-16T01:27:00.525Z,3.60
2023-03-16T01:29:27.340Z,3.50
2023-03-16T01:31:56.456Z,3.47
2023-03-16T01:34:23.321Z,3.03
2023-03-16T01:36:51.053Z,3.37
2023-03-16T01:39:25.881Z,3.50
2023-03-16T01:41:52.407Z,3.30
2023-03-16T01:44:24.457Z,3.50
2023-03-16T01:46:51.318Z,3.40
2023-03-16T01:49:23.936Z,4.10
2023-03-16T01:51:59.619Z,3.47
2023-03-16T01:54:48.868Z,4.33
2023-03-16T01:57:19.576Z,2.97
2023-03-16T02:00:10.943Z,2.83
2023-03-16T02:02:56.474Z,3.73
2023-03-16T02:05:42.238Z,3.47
2023-03-16T02:08:12.626Z,3.73
2023-03-16T02:10:40.373Z,3.80
2023-03-16T02:13:07.212Z,3.60
2023-03-16T02:15:35.961Z,3.40
2023-03-16T02:18:02.915Z,2.73
2023-03-16T02:20:42.737Z,2.87
2023-03-16T02:23:18.533Z,3.27
2023-03-16T02:25:56.890Z,3.60
2023-03-16T02:28:45.249Z,3.10
2023-03-16T02:31:12.281Z,3.40
2023-03-16T02:33:39.961Z,2.90
2023-03-16T02:36:08.785Z,2.60
2023-03-16T02:38:35.715Z,3.00
2023-03-16T02:41:14.664Z,3.10
2023-03-16T02:43:56.722Z,3.20
2023-03-16T02:46:29.303Z,2.67
2023-03-16T02:49:03.041Z,3.30
2023-03-16T02:51:30.498Z,3.57
2023-03-16T02:53:57.111Z,3.40
2023-03-16T02:56:25.075Z,2.83
2023-03-16T02:58:51.816Z,3.20
2023-03-16T03:01:19.848Z,2.70
2023-03-16T03:03:46.521Z,2.70
2023-03-16T03:06:12.937Z,3.30
2023-03-16T03:08:40.004Z,2.40
2023-03-16T03:11:06.500Z,2.87
2023-03-16T03:13:33.172Z,2.50
2023-03-16T03:16:00.100Z,3.00
2023-03-16T03:18:28.182Z,3.13
2023-03-16T03:20:54.631Z,3.07
2023-03-16T03:23:21.281Z,2.73
2023-03-16T03:25:47.947Z,2.43
2023-03-16T03:28:15.554Z,3.13
2023-03-16T03:30:42.428Z,2.37
2023-03-16T03:33:09.303Z,3.07
2023-03-16T03:35:35.808Z,2.50
2023-03-16T03:38:02.408Z,2.73
2023-03-16T03:40:29.916Z,2.90
2023-03-16T03:43:01.442Z,2.57
2023-03-16T03:45:29.141Z,2.60
2023-03-16T03:47:56.250Z,2.47
2023-03-16T03:50:23.825Z,2.63
2023-03-16T03:52:57.362Z,2.57
2023-03-16T03:55:24.090Z,3.27
2023-03-16T03:57:50.993Z,3.10
2023-03-16T04:00:20.857Z,2.80
2023-03-16T04:02:48.123Z,2.87
2023-03-16T04:05:22.590Z,2.80
2023-03-16T04:07:55.028Z,2.60
2023-03-16T04:10:21.472Z,3.20
2023-03-16T04:12:48.065Z,2.67
2023-03-16T04:15:14.624Z,2.70
2023-03-16T04:17:59.546Z,2.40
2023-03-16T04:20:26.400Z,3.40
2023-03-16T04:22:58.405Z,2.60
2023-03-16T04:25:26.649Z,2.43
2023-03-16T04:27:53.552Z,2.80
2023-03-16T04:30:23.395Z,3.00
2023-03-16T04:32:54.314Z,3.60
2023-03-16T04:35:22.202Z,3.30
2023-03-16T04:37:52.935Z,3.17
2023-03-16T04:40:24.438Z,3.47
2023-03-16T04:42:58.022Z,2.90
2023-03-16T04:45:24.477Z,3.60
2023-03-16T04:47:54.121Z,3.03
2023-03-16T04:50:20.888Z,3.30
2023-03-16T04:52:51.739Z,3.30
2023-03-16T04:55:18.774Z,3.17
2023-03-16T04:57:45.945Z,3.60
2023-03-16T05:00:18.772Z,3.13
2023-03-16T05:02:53.628Z,3.30
2023-03-16T05:05:21.608Z,2.87
2023-03-16T05:07:49.218Z,2.90
2023-03-16T05:10:18.840Z,3.10
2023-03-16T05:12:47.413Z,3.07
2023-03-16T05:15:14.822Z,2.43
2023-03-16T05:17:43.148Z,2.70
2023-03-16T05:20:14.714Z,2.73
2023-03-16T05:22:56.937Z,4.00
2023-03-16T05:25:32.721Z,2.80
2023-03-16T05:28:03.865Z,4.10
2023-03-16T05:30:36.869Z,3.57
2023-03-16T05:33:06.227Z,3.43
2023-03-16T05:35:33.412Z,3.00
2023-03-16T05:38:04.792Z,2.80
2023-03-16T05:40:33.826Z,3.00
2023-03-16T05:43:10.483Z,2.60
2023-03-16T05:45:43.837Z,2.97
2023-03-16T05:48:17.668Z,3.40
2023-03-16T05:50:48.260Z,2.90
2023-03-16T05:53:18.263Z,3.73
2023-03-16T05:55:45.479Z,3.40
2023-03-16T05:58:15.587Z,3.33
2023-03-16T06:00:43.759Z,2.83
2023-03-16T06:03:31.321Z,4.20
2023-03-16T06:05:59.164Z,3.80
2023-03-16T06:08:32.578Z,2.67
2023-03-16T06:11:07.958Z,2.77
2023-03-16T06:13:34.581Z,2.80
2023-03-16T06:16:02.154Z,2.90
2023-03-16T06:18:29.210Z,3.07
2023-03-16T06:20:56.299Z,2.73
2023-03-16T06:23:23.072Z,2.77
2023-03-16T06:25:51.083Z,2.80
2023-03-16T06:28:22.071Z,2.90
2023-03-16T06:30:49.068Z,2.80
2023-03-16T06:33:15.585Z,2.90
2023-03-16T06:35:42.255Z,3.60
2023-03-16T06:38:15.749Z,2.37
2023-03-16T06:41:02.624Z,3.20
2023-03-16T06:43:31.318Z,3.20
2023-03-16T06:45:58.834Z,3.17
2023-03-16T06:48:25.220Z,2.70
2023-03-16T06:50:51.759Z,2.90
2023-03-16T06:53:22.731Z,2.80
2023-03-16T06:55:49.724Z,2.83
2023-03-16T06:58:16.693Z,2.53
2023-03-16T07:00:44.732Z,2.33
2023-03-16T07:03:11.222Z,3.20
2023-03-16T07:05:40.474Z,2.43
2023-03-16T07:08:09.222Z,2.50
2023-03-16T07:10:35.975Z,3.03
2023-03-16T07:13:02.347Z,3.10
2023-03-16T07:15:28.915Z,3.03
2023-03-16T07:17:57.008Z,3.17
2023-03-16T07:20:24.570Z,3.03
2023-03-16T07:22:50.978Z,3.40
2023-03-16T07:25:17.481Z,2.73
2023-03-16T07:27:49.575Z,2.93
2023-03-16T07:30:22.355Z,2.87
2023-03-16T07:32:49.805Z,3.03
2023-03-16T07:35:17.901Z,3.10
2023-03-16T07:37:45.049Z,3.10
2023-03-16T07:40:12.288Z,3.10
2023-03-16T07:42:39.250Z,3.40
2023-03-16T07:45:10.976Z,3.43
2023-03-16T07:47:37.420Z,2.80
2023-03-16T07:50:13.289Z,2.97
2023-03-16T07:52:43.794Z,3.40
2023-03-16T07:55:11.773Z,2.90
2023-03-16T07:57:39.765Z,4.00
2023-03-16T08:00:07.803Z,3.03
2023-03-16T08:02:39.726Z,2.43
2023-03-16T08:05:12.817Z,3.00
2023-03-16T08:07:43.226Z,2.60
2023-03-16T08:10:13.632Z,2.83
2023-03-16T08:12:49.585Z,2.53
2023-03-16T08:15:16.241Z,2.80
2023-03-16T08:17:43.847Z,3.00
2023-03-16T08:20:15.490Z,3.37
2023-03-16T08:22:46.134Z,2.97
2023-03-16T08:25:15.623Z,2.47
2023-03-16T08:27:53.030Z,2.70
2023-03-16T08:30:19.685Z,2.80
2023-03-16T08:32:54.470Z,2.67
2023-03-16T08:35:21.144Z,2.30
2023-03-16T08:37:49.470Z,3.00
2023-03-16T08:40:19.450Z,2.57
2023-03-16T08:42:50.039Z,2.40
2023-03-16T08:45:17.390Z,2.50
2023-03-16T08:47:44.373Z,2.40
2023-03-16T08:50:15.747Z,2.30
2023-03-16T08:52:42.810Z,2.07
2023-03-16T08:55:10.963Z,2.80
2023-03-16T08:57:39.177Z,2.87
2023-03-16T09:00:12.887Z,2.40
2023-03-16T09:02:40.649Z,2.40
2023-03-16T09:05:12.009Z,2.20
2023-03-16T09:07:39.475Z,1.93
2023-03-16T09:10:07.177Z,2.10
2023-03-16T09:12:37.824Z,1.87
2023-03-16T09:15:05.910Z,1.90
2023-03-16T09:17:33.307Z,2.07
2023-03-16T09:20:11.526Z,1.90
2023-03-16T09:22:46.857Z,2.00
2023-03-16T09:25:14.424Z,1.60
2023-03-16T09:27:40.861Z,2.03
2023-03-16T09:30:09.195Z,1.40
2023-03-16T09:32:37.258Z,1.50
2023-03-16T09:35:05.713Z,2.03
2023-03-16T09:37:44.572Z,1.97
2023-03-16T09:40:25.297Z,1.43
2023-03-16T09:42:57.844Z,1.80
2023-03-16T09:45:40.287Z,1.50
2023-03-16T09:48:10.446Z,2.30
2023-03-16T09:50:48.648Z,1.77
2023-03-16T09:53:31.649Z,1.60
2023-03-16T09:56:03.273Z,1.80
2023-03-16T09:58:32.102Z,1.80
2023-03-16T10:01:26.669Z,1.40
2023-03-16T10:04:14.376Z,1.53
2023-03-16T10:06:54.448Z,1.57
2023-03-16T10:09:38.420Z,1.23
2023-03-16T10:12:08.636Z,1.67
2023-03-16T10:14:48.074Z,1.57
2023-03-16T10:17:19.059Z,1.83
2023-03-16T10:20:00.017Z,1.37
2023-03-16T10:22:35.591Z,1.53
2023-03-16T10:25:22.188Z,1.77
2023-03-16T10:27:49.261Z,2.27
2023-03-16T10:30:19.718Z,1.80
2023-03-16T10:32:47.067Z,1.73
2023-03-16T10:35:29.186Z,1.40
2023-03-16T10:37:57.115Z,1.37
2023-03-16T10:40:23.860Z,1.47
2023-03-16T10:42:50.445Z,1.53
2023-03-16T10:45:29.952Z,1.33
2023-03-16T10:48:07.740Z,1.60
2023-03-16T10:50:34.404Z,1.50
2023-03-16T10:53:02.678Z,1.67
2023-03-16T10:55:34.745Z,1.40
2023-03-16T10:58:01.348Z,1.57
2023-03-16T11:00:34.518Z,1.33
2023-03-16T11:03:01.248Z,1.90
2023-03-16T11:05:33.008Z,1.30
2023-03-16T11:08:09.559Z,1.67
2023-03-16T11:10:56.277Z,1.40
2023-03-16T11:13:26.199Z,1.40
2023-03-16T11:16:01.610Z,1.43
2023-03-16T11:18:32.292Z,1.57
2023-03-16T11:21:06.628Z,1.60
2023-03-16T11:23:36.891Z,1.93
2023-03-16T11:26:14.143Z,2.57
2023-03-16T11:28:45.781Z,1.60
2023-03-16T11:31:42.838Z,1.30
2023-03-16T11:34:15.883Z,1.37
2023-03-16T11:36:59.263Z,1.17
2023-03-16T11:39:52.693Z,1.43
2023-03-16T11:42:30.593Z,1.00
2023-03-16T11:45:17.287Z,1.40
2023-03-16T11:47:49.773Z,1.60
2023-03-16T11:50:45.700Z,1.60
2023-03-16T11:53:36.086Z,1.70
2023-03-16T11:56:21.981Z,1.20
2023-03-16T11:59:18.614Z,1.57
2023-03-16T12:02:05.128Z,1.70
2023-03-16T12:05:19.244Z,1.40
2023-03-16T12:08:18.951Z,1.53
2023-03-16T12:10:51.997Z,1.40
2023-03-16T12:13:33.613Z,1.93
2023-03-16T12:16:11.643Z,1.30
2023-03-16T12:18:47.784Z,1.70
2023-03-16T12:21:20.164Z,1.40
2023-03-16T12:23:53.318Z,1.60
2023-03-16T12:26:23.380Z,1.20
2023-03-16T12:28:51.909Z,1.60
2023-03-16T12:31:45.847Z,1.47
2023-03-16T12:34:25.638Z,1.13
2023-03-16T12:37:25.186Z,1.57
2023-03-16T12:39:51.604Z,1.47
2023-03-16T12:42:42.356Z,1.50
2023-03-16T12:45:17.965Z,1.40
2023-03-16T12:47:50.464Z,1.53
2023-03-16T12:50:20.761Z,1.40
2023-03-16T12:52:50.657Z,1.60
2023-03-16T12:55:25.049Z,1.47
2023-03-16T12:58:00.228Z,1.53
2023-03-16T13:00:40.767Z,1.13
2023-03-16T13:03:15.391Z,1.80
2023-03-16T13:05:55.363Z,1.30
2023-03-16T13:08:23.290Z,1.43
2023-03-16T13:11:06.489Z,1.30
2023-03-16T13:13:34.105Z,1.27
2023-03-16T13:16:09.415Z,1.30
2023-03-16T13:18:40.124Z,1.40
2023-03-16T13:21:37.730Z,1.57
2023-03-16T13:24:30.881Z,1.20
2023-03-16T13:27:15.560Z,1.27
2023-03-16T13:29:53.146Z,1.43
2023-03-16T13:32:21.389Z,1.20
2023-03-16T13:34:50.749Z,1.30
2023-03-16T13:37:20.414Z,1.27
2023-03-16T13:39:55.269Z,1.70
2023-03-16T13:42:23.969Z,1.40
2023-03-16T13:44:56.653Z,1.30
2023-03-16T13:47:26.430Z,1.40
2023-03-16T13:49:58.826Z,1.27
2023-03-16T13:52:31.280Z,1.40
2023-03-16T13:54:59.383Z,1.97
2023-03-16T13:57:29.404Z,1.37
2023-03-16T14:00:20.375Z,1.20
2023-03-16T14:02:52.523Z,1.30
2023-03-16T14:05:24.548Z,1.37
2023-03-16T14:07:51.329Z,1.07
2023-03-16T14:10:18.653Z,1.30
2023-03-16T14:12:56.896Z,1.13
2023-03-16T14:15:26.651Z,1.17
2023-03-16T14:17:53.696Z,1.10
2023-03-16T14:20:23.208Z,1.40
2023-03-16T14:22:53.643Z,1.80
2023-03-16T14:25:25.488Z,1.60
2023-03-16T14:28:01.527Z,1.50
2023-03-16T14:30:30.363Z,1.23
2023-03-16T14:33:05.545Z,1.43
2023-03-16T14:35:41.376Z,1.40
2023-03-16T14:38:36.020Z,1.30
2023-03-16T14:41:15.275Z,1.57
2023-03-16T14:43:47.842Z,1.40
2023-03-16T14:46:20.361Z,1.40
2023-03-16T14:48:46.814Z,1.80
2023-03-16T14:51:14.625Z,1.60
2023-03-16T14:53:41.134Z,1.40
2023-03-16T14:56:13.582Z,1.47
2023-03-16T14:58:41.193Z,1.47
2023-03-16T15:01:17.838Z,1.30
2023-03-16T15:03:45.345Z,1.47
2023-03-16T15:06:11.863Z,1.63
2023-03-16T15:08:44.263Z,1.73
2023-03-16T15:11:11.267Z,1.67
2023-03-16T15:13:40.566Z,1.60
2023-03-16T15:16:11.433Z,1.90
2023-03-16T15:18:39.775Z,2.40
2023-03-16T15:21:21.007Z,2.57
2023-03-16T15:23:48.196Z,1.97
2023-03-16T15:26:19.040Z,2.80
2023-03-16T15:28:45.454Z,3.00
2023-03-16T15:31:14.058Z,2.40
2023-03-16T15:33:41.425Z,2.03
2023-03-16T15:36:19.873Z,2.43
2023-03-16T15:38:51.485Z,1.50
2023-03-16T15:41:18.123Z,2.10
2023-03-16T15:43:45.702Z,1.97
2023-03-16T15:46:12.277Z,1.17
2023-03-16T15:48:39.244Z,1.13
2023-03-16T15:51:19.513Z,1.50
2023-03-16T15:53:50.847Z,1.30
2023-03-16T15:56:23.759Z,1.10
2023-03-16T15:58:50.736Z,1.33
2023-03-16T16:01:22.073Z,1.17
2023-03-16T16:03:51.763Z,1.03
2023-03-16T16:06:18.574Z,1.70
2023-03-16T16:08:45.302Z,1.30
2023-03-16T16:11:23.711Z,1.40
2023-03-16T16:13:51.462Z,1.20
2023-03-16T16:16:19.840Z,1.57
2023-03-16T16:18:48.242Z,1.17
2023-03-16T16:21:23.222Z,0.97
2023-03-16T16:23:52.090Z,1.10
2023-03-16T16:26:52.183Z,1.27
2023-03-16T16:29:23.886Z,1.10
2023-03-16T16:31:53.690Z,1.37
2023-03-16T16:34:24.116Z,1.47
2023-03-16T16:36:51.304Z,1.37
2023-03-16T16:39:17.771Z,1.33
2023-03-16T16:41:44.806Z,1.40
2023-03-16T16:44:23.418Z,1.53
2023-03-16T16:46:51.047Z,1.17
2023-03-16T16:49:28.418Z,1.20
2023-03-16T16:51:55.525Z,1.00
2023-03-16T16:54:29.010Z,1.00
2023-03-16T16:56:57.474Z,1.10
2023-03-16T16:59:28.357Z,1.20
2023-03-16T17:01:56.615Z,1.33
2023-03-16T17:04:28.528Z,1.17
2023-03-16T17:06:59.025Z,1.13
2023-03-16T17:09:27.678Z,1.53
2023-03-16T17:11:58.735Z,1.23
2023-03-16T17:14:28.065Z,1.30
2023-03-16T17:16:55.301Z,1.20
2023-03-16T17:19:24.784Z,1.47
2023-03-16T17:21:52.736Z,1.33
2023-03-16T17:24:19.206Z,1.20
2023-03-16T17:26:49.301Z,1.43
2023-03-16T17:29:18.689Z,1.67
2023-03-16T17:31:45.144Z,1.27
2023-03-16T17:34:18.406Z,1.33
2023-03-16T17:36:46.233Z,1.33
2023-03-16T17:39:21.118Z,1.10
2023-03-16T17:42:01.825Z,1.27
2023-03-16T17:44:34.627Z,1.40
2023-03-16T17:47:01.568Z,1.30
2023-03-16T17:49:28.592Z,1.40
2023-03-16T17:51:55.978Z,1.20
2023-03-16T17:54:23.144Z,1.30
2023-03-16T17:56:51.602Z,1.30
2023-03-16T17:59:21.021Z,1.50
2023-03-16T18:01:48.297Z,1.00
2023-03-16T18:04:20.991Z,1.43
2023-03-16T18:06:48.071Z,1.83
2023-03-16T18:09:16.013Z,1.90
2023-03-16T18:11:47.434Z,1.27
2023-03-16T18:14:24.540Z,1.20
2023-03-16T18:16:51.378Z,1.30
2023-03-16T18:19:24.423Z,1.77
2023-03-16T18:21:53.665Z,1.67
2023-03-16T18:24:22.068Z,1.53
2023-03-16T18:26:48.701Z,1.43
2023-03-16T18:29:15.157Z,1.50
2023-03-16T18:31:42.380Z,1.60
2023-03-16T18:34:21.003Z,1.30
2023-03-16T18:36:47.545Z,1.40
2023-03-16T18:39:22.084Z,2.60
2023-03-16T18:41:48.567Z,2.00
2023-03-16T18:44:20.668Z,1.70
2023-03-16T18:46:48.742Z,1.60
2023-03-16T18:49:26.484Z,1.70
2023-03-16T18:51:54.543Z,1.67
2023-03-16T18:54:35.293Z,1.70
2023-03-16T18:57:04.345Z,1.87
2023-03-16T18:59:31.837Z,1.63
2023-03-16T19:01:58.522Z,1.70
2023-03-16T19:04:29.128Z,1.40
2023-03-16T19:06:56.743Z,1.60
2023-03-16T19:09:27.704Z,2.13
2023-03-16T19:11:54.653Z,1.37
2023-03-16T19:14:31.124Z,1.73
2023-03-16T19:16:57.695Z,2.57
2023-03-16T19:19:24.712Z,1.80
2023-03-16T19:22:15.761Z,1.57
2023-03-16T19:24:52.460Z,1.60
2023-03-16T19:27:22.817Z,2.07
2023-03-16T19:29:52.122Z,2.03
2023-03-16T19:32:20.852Z,1.77
2023-03-16T19:34:48.025Z,1.97
2023-03-16T19:37:15.629Z,1.70
2023-03-16T19:39:43.580Z,2.03
2023-03-16T19:42:21.278Z,1.63
2023-03-16T19:44:49.826Z,1.93
2023-03-16T19:47:30.832Z,1.70
2023-03-16T19:49:58.832Z,1.50
2023-03-16T19:52:28.101Z,1.97
2023-03-16T19:54:54.656Z,1.87
2023-03-16T19:57:21.414Z,1.70
2023-03-16T19:59:50.187Z,2.40
2023-03-16T20:02:36.992Z,2.20
2023-03-16T20:05:04.321Z,2.10
2023-03-16T20:07:31.232Z,2.90
2023-03-16T20:09:57.654Z,1.97
2023-03-16T20:12:27.003Z,2.23
2023-03-16T20:14:55.987Z,2.10
2023-03-16T20:17:26.104Z,2.13
2023-03-16T20:19:53.006Z,2.10
2023-03-16T20:22:24.837Z,2.23
2023-03-16T20:24:52.971Z,2.20
2023-03-16T20:27:21.849Z,2.20
2023-03-16T20:29:49.141Z,2.00
2023-03-16T20:32:31.400Z,2.20
2023-03-16T20:34:58.116Z,1.70
2023-03-16T20:37:27.971Z,2.27
2023-03-16T20:39:56.454Z,1.60
2023-03-16T20:42:30.285Z,1.77
2023-03-16T20:44:57.612Z,1.77
2023-03-16T20:47:25.244Z,2.00
2023-03-16T20:49:52.737Z,2.50
2023-03-16T20:52:22.026Z,2.17
2023-03-16T20:54:49.957Z,2.33
2023-03-16T20:57:21.083Z,2.57
2023-03-16T20:59:49.270Z,2.50
2023-03-16T21:02:27.278Z,2.10
2023-03-16T21:04:58.704Z,2.03
2023-03-16T21:07:25.573Z,2.03
2023-03-16T21:09:52.148Z,2.00
2023-03-16T21:12:24.544Z,2.53
2023-03-16T21:14:51.781Z,2.20
2023-03-16T21:17:26.635Z,1.63
2023-03-16T21:19:53.398Z,2.23
2023-03-16T21:22:36.605Z,1.63
2023-03-16T21:25:03.123Z,1.90
2023-03-16T21:27:34.546Z,1.77
2023-03-16T21:30:26.092Z,2.37
2023-03-16T21:32:53.895Z,1.70
2023-03-16T21:35:22.807Z,1.70
2023-03-16T21:37:49.410Z,1.83
2023-03-16T21:40:21.555Z,1.80
2023-03-16T21:42:48.302Z,1.50
2023-03-16T21:45:15.806Z,1.90
2023-03-16T21:47:43.344Z,1.97
2023-03-16T21:50:20.317Z,1.77
2023-03-16T21:52:47.273Z,2.07
2023-03-16T21:55:23.819Z,1.90
2023-03-16T21:57:51.157Z,1.87
2023-03-16T22:00:23.234Z,1.73
2023-03-16T22:02:53.121Z,1.73
2023-03-16T22:05:40.148Z,2.20
2023-03-16T22:08:22.278Z,2.27
2023-03-16T22:10:49.570Z,1.40
2023-03-16T22:13:16.327Z,1.80
2023-03-16T22:15:43.610Z,1.87
2023-03-16T22:18:29.697Z,1.80
2023-03-16T22:20:57.492Z,3.67
2023-03-16T22:23:34.308Z,1.63
2023-03-16T22:26:02.479Z,1.50
2023-03-16T22:28:29.926Z,1.73
2023-03-16T22:30:58.263Z,1.80
2023-03-16T22:33:31.626Z,2.27
2023-03-16T22:36:11.426Z,1.70
2023-03-16T22:38:40.051Z,2.20
2023-03-16T22:41:07.601Z,1.70
2023-03-16T22:43:36.949Z,1.73
2023-03-16T22:46:04.059Z,1.53
2023-03-16T22:48:31.865Z,1.73
2023-03-16T22:51:03.855Z,1.80
2023-03-16T22:53:41.350Z,1.47
2023-03-16T22:56:10.231Z,1.97
2023-03-16T22:58:40.649Z,1.63
2023-03-16T23:01:17.756Z,1.60
2023-03-16T23:03:45.785Z,1.53
2023-03-16T23:06:17.404Z,2.17
2023-03-16T23:08:44.253Z,1.93
2023-03-16T23:11:29.870Z,1.43
2023-03-16T23:13:56.866Z,1.60
2023-03-16T23:16:41.926Z,1.60
2023-03-16T23:19:33.853Z,1.67
2023-03-16T23:22:03.424Z,1.50
2023-03-16T23:24:30.298Z,1.63
2023-03-16T23:26:57.659Z,2.10
2023-03-16T23:29:24.483Z,1.83
2023-03-16T23:31:51.258Z,1.83
2023-03-16T23:34:20.614Z,1.60
2023-03-16T23:36:47.290Z,1.97
2023-03-16T23:39:13.817Z,1.50
2023-03-16T23:41:44.258Z,1.60
2023-03-16T23:44:23.403Z,1.97
2023-03-16T23:46:50.829Z,1.90
2023-03-16T23:49:24.037Z,1.50
2023-03-16T23:51:51.070Z,1.80
2023-03-16T23:54:23.410Z,2.20
2023-03-16T23:56:50.607Z,1.97
2023-03-16T23:59:17.743Z,1.40
